createdAt,value
2023-01-04T00:01:07.881Z,5.05
2023-01-04T00:03:34.540Z,4.90
2023-01-04T00:06:04.125Z,5.07
2023-01-04T00:08:31.338Z,5.05
2023-01-04T00:11:10.964Z,4.75
2023-01-04T00:13:37.427Z,5.05
2023-01-04T00:16:08.163Z,4.25
2023-01-04T00:18:36.699Z,4.35
2023-01-04T00:21:08.255Z,5.72
2023-01-04T00:23:34.652Z,4.80
2023-01-04T00:26:01.103Z,5.07
2023-01-04T00:28:27.580Z,4.82
2023-01-04T00:30:54.107Z,7.18
2023-01-04T00:33:20.556Z,5.43
2023-01-04T00:35:47.014Z,4.40
2023-01-04T00:38:13.422Z,4.72
2023-01-04T00:40:39.859Z,4.32
2023-01-04T00:43:06.308Z,4.55
2023-01-04T00:45:32.922Z,4.88
2023-01-04T00:47:59.385Z,5.82
2023-01-04T00:50:25.817Z,5.28
2023-01-04T00:52:52.269Z,5.00
2023-01-04T00:55:18.776Z,5.68
2023-01-04T00:57:45.227Z,5.22
2023-01-04T01:00:12.444Z,4.72
2023-01-04T01:02:39.030Z,5.15
2023-01-04T01:05:06.184Z,5.55
2023-01-04T01:07:32.592Z,5.15
2023-01-04T01:09:59.007Z,5.45
2023-01-04T01:12:25.446Z,5.72
2023-01-04T01:14:57.197Z,5.35
2023-01-04T01:17:26.633Z,5.15
2023-01-04T01:19:53.071Z,4.95
2023-01-04T01:22:19.501Z,4.75
2023-01-04T01:24:45.884Z,6.00
2023-01-04T01:27:12.417Z,4.93
2023-01-04T01:29:38.817Z,4.65
2023-01-04T01:32:05.595Z,3.90
2023-01-04T01:34:32.208Z,3.00
2023-01-04T01:36:58.677Z,4.35
2023-01-04T01:39:25.171Z,3.97
2023-01-04T01:41:51.655Z,3.90
2023-01-04T01:44:42.857Z,3.25
2023-01-04T01:47:17.140Z,4.22
2023-01-04T01:49:46.600Z,3.60
2023-01-04T01:52:27.313Z,3.50
2023-01-04T01:54:58.864Z,4.38
2023-01-04T01:57:28.765Z,4.53
2023-01-04T01:59:59.455Z,3.95
2023-01-04T02:02:26.153Z,3.90
2023-01-04T02:04:55.405Z,3.83
2023-01-04T02:07:26.426Z,4.00
2023-01-04T02:09:53.948Z,4.47
2023-01-04T02:12:20.368Z,4.28
2023-01-04T02:14:50.355Z,4.03
2023-01-04T02:17:34.877Z,4.38
2023-01-04T02:20:16.448Z,3.30
2023-01-04T02:23:08.293Z,2.90
2023-01-04T02:25:59.332Z,6.28
2023-01-04T02:28:31.898Z,3.42
2023-01-04T02:31:08.728Z,3.60
2023-01-04T02:33:49.777Z,3.20
2023-01-04T02:36:39.278Z,3.72
2023-01-04T02:39:48.398Z,4.35
2023-01-04T02:42:48.973Z,3.08
2023-01-04T02:45:19.446Z,3.25
2023-01-04T02:48:05.082Z,3.05
2023-01-04T02:50:39.820Z,3.05
2023-01-04T02:53:12.031Z,3.80
2023-01-04T02:55:43.725Z,3.15
2023-01-04T02:58:45.437Z,2.92
2023-01-04T03:01:55.490Z,3.20
2023-01-04T03:04:59.845Z,2.28
2023-01-04T03:07:35.547Z,2.35
2023-01-04T03:10:19.222Z,2.50
2023-01-04T03:12:56.371Z,2.78
2023-01-04T03:15:26.669Z,3.13
2023-01-04T03:17:57.806Z,2.55
2023-01-04T03:20:27.922Z,3.88
2023-01-04T03:23:18.439Z,3.28
2023-01-04T03:26:11.799Z,2.88
2023-01-04T03:28:59.234Z,3.67
2023-01-04T03:31:55.238Z,2.90
2023-01-04T03:34:40.294Z,2.88
2023-01-04T03:37:23.101Z,3.10
2023-01-04T03:40:17.255Z,3.03
2023-01-04T03:43:16.949Z,2.72
2023-01-04T03:46:11.043Z,3.03
2023-01-04T03:48:45.655Z,2.60
2023-01-04T03:51:15.847Z,2.40
2023-01-04T03:54:19.078Z,29.48
2023-01-04T03:56:47.799Z,25.38
2023-01-04T03:59:14.241Z,16.73
2023-01-04T04:01:43.250Z,11.73
2023-01-04T04:04:29.525Z,6.95
2023-01-04T04:07:14.753Z,9.53
2023-01-04T04:09:41.141Z,6.70
2023-01-04T04:12:07.607Z,5.72
2023-01-04T04:14:34.045Z,7.03
2023-01-04T04:17:00.537Z,10.05
2023-01-04T04:19:27.070Z,7.45
2023-01-04T04:21:53.541Z,17.73
2023-01-04T04:24:23.155Z,21.58
2023-01-04T04:26:49.794Z,10.57
2023-01-04T04:29:16.577Z,11.25
2023-01-04T04:31:43.066Z,14.75
2023-01-04T04:34:10.455Z,8.38
2023-01-04T04:36:37.138Z,4.75
2023-01-04T04:39:03.809Z,3.28
2023-01-04T04:41:39.690Z,1.75
2023-01-04T04:44:08.371Z,2.15
2023-01-04T04:46:34.911Z,2.88
2023-01-04T04:49:01.846Z,2.38
2023-01-04T04:51:28.301Z,5.20
2023-01-04T04:53:54.724Z,2.63
2023-01-04T04:56:21.639Z,2.97
2023-01-04T04:58:48.636Z,2.75
2023-01-04T05:01:15.685Z,3.08
2023-01-04T05:03:42.224Z,2.60
2023-01-04T05:06:08.841Z,1.95
2023-01-04T05:08:35.857Z,2.50
2023-01-04T05:11:12.880Z,1.70
2023-01-04T05:13:40.012Z,1.50
2023-01-04T05:16:08.172Z,3.05
2023-01-04T05:18:35.538Z,4.35
2023-01-04T05:21:02.770Z,2.28
2023-01-04T05:23:29.307Z,2.38
2023-01-04T05:25:59.347Z,1.90
2023-01-04T05:28:26.018Z,2.05
2023-01-04T05:30:53.637Z,2.65
2023-01-04T05:33:28.930Z,1.73
2023-01-04T05:35:57.581Z,1.95
2023-01-04T05:38:24.405Z,1.90
2023-01-04T05:40:51.208Z,3.35
2023-01-04T05:43:19.369Z,2.05
2023-01-04T05:45:49.343Z,2.88
2023-01-04T05:48:16.221Z,1.77
2023-01-04T05:50:43.410Z,1.00
2023-01-04T05:53:10.388Z,1.02
2023-01-04T05:55:36.873Z,1.17
2023-01-04T05:58:03.321Z,1.75
2023-01-04T06:00:29.792Z,2.28
2023-01-04T06:02:57.190Z,0.70
2023-01-04T06:05:25.242Z,0.93
2023-01-04T06:07:52.343Z,0.90
2023-01-04T06:10:19.413Z,1.40
2023-01-04T06:12:47.220Z,1.33
2023-01-04T06:15:14.130Z,1.95
2023-01-04T06:17:40.644Z,1.05
2023-01-04T06:20:11.928Z,0.80
2023-01-04T06:22:40.417Z,1.10
2023-01-04T06:25:07.943Z,2.15
2023-01-04T06:27:34.585Z,1.00
2023-01-04T06:30:00.988Z,0.85
2023-01-04T06:32:27.431Z,1.25
2023-01-04T06:34:53.912Z,0.85
2023-01-04T06:37:20.323Z,0.93
2023-01-04T06:39:46.759Z,1.23
2023-01-04T06:42:31.690Z,1.30
2023-01-04T06:44:58.128Z,0.80
2023-01-04T06:47:24.609Z,0.95
2023-01-04T06:49:51.240Z,0.80
2023-01-04T06:52:17.749Z,1.00
2023-01-04T06:54:44.142Z,0.93
2023-01-04T06:57:10.683Z,1.45
2023-01-04T06:59:37.095Z,1.10
2023-01-04T07:02:03.701Z,1.30
2023-01-04T07:04:30.293Z,1.13
2023-01-04T07:06:57.766Z,1.13
2023-01-04T07:09:24.196Z,1.05
2023-01-04T07:11:50.628Z,0.90
2023-01-04T07:14:17.108Z,1.02
2023-01-04T07:16:43.600Z,0.93
2023-01-04T07:19:10.036Z,0.90
2023-01-04T07:21:36.438Z,1.02
2023-01-04T07:24:02.950Z,1.40
2023-01-04T07:26:29.383Z,1.52
2023-01-04T07:29:14.354Z,2.15
2023-01-04T07:31:41.749Z,1.58
2023-01-04T07:34:08.197Z,0.55
2023-01-04T07:36:34.599Z,0.73
2023-01-04T07:39:01.064Z,0.85
2023-01-04T07:41:27.715Z,0.60
2023-01-04T07:43:54.204Z,1.42
2023-01-04T07:46:22.045Z,0.85
2023-01-04T07:48:48.671Z,1.10
2023-01-04T07:51:15.637Z,1.40
2023-01-04T07:53:42.103Z,1.02
2023-01-04T07:56:11.334Z,1.50
2023-01-04T07:58:42.149Z,2.30
2023-01-04T08:01:19.361Z,0.80
2023-01-04T08:03:46.465Z,0.82
2023-01-04T08:06:15.425Z,0.88
2023-01-04T08:08:42.600Z,0.77
2023-01-04T08:11:14.760Z,0.85
2023-01-04T08:13:42.088Z,0.60
2023-01-04T08:16:16.495Z,0.60
2023-01-04T08:18:42.970Z,2.15
2023-01-04T08:21:09.423Z,0.82
2023-01-04T08:23:36.999Z,0.82
2023-01-04T08:26:09.643Z,0.55
2023-01-04T08:28:36.348Z,0.60
2023-01-04T08:31:09.011Z,0.68
2023-01-04T08:33:37.872Z,0.60
2023-01-04T08:36:19.612Z,1.67
2023-01-04T08:39:01.329Z,1.58
2023-01-04T08:41:57.207Z,0.60
2023-01-04T08:44:21.530Z,1.23
2023-01-04T08:46:49.359Z,0.90
2023-01-04T08:49:15.841Z,0.70
2023-01-04T08:51:42.802Z,0.70
2023-01-04T08:54:10.500Z,0.70
2023-01-04T08:56:37.420Z,1.20
2023-01-04T08:59:04.985Z,1.52
2023-01-04T09:01:33.210Z,1.10
2023-01-04T09:04:00.112Z,1.15
2023-01-04T09:06:27.466Z,0.70
2023-01-04T09:08:56.096Z,0.77
2023-01-04T09:11:22.752Z,1.10
2023-01-04T09:13:53.831Z,0.60
2023-01-04T09:16:20.753Z,1.20
2023-01-04T09:18:47.270Z,0.60
2023-01-04T09:21:16.594Z,0.60
2023-01-04T09:23:43.970Z,0.70
2023-01-04T09:26:16.223Z,1.00
2023-01-04T09:28:43.567Z,1.80
2023-01-04T09:31:16.092Z,1.00
2023-01-04T09:34:12.766Z,0.70
2023-01-04T09:36:30.299Z,0.50
2023-01-04T09:38:56.772Z,0.50
2023-01-04T09:41:27.412Z,0.60
2023-01-04T09:44:09.473Z,0.77
2023-01-04T09:46:44.498Z,0.50
2023-01-04T09:49:38.097Z,0.70
2023-01-04T09:52:10.246Z,0.70
2023-01-04T09:55:00.766Z,1.58
2023-01-04T09:57:51.956Z,0.50
2023-01-04T10:00:27.396Z,0.55
2023-01-04T10:02:58.628Z,0.60
2023-01-04T10:05:28.685Z,0.82
2023-01-04T10:07:55.848Z,0.50
2023-01-04T10:10:38.310Z,1.05
2023-01-04T10:13:16.460Z,0.73
2023-01-04T10:16:01.295Z,1.85
2023-01-04T10:21:49.137Z,1.10
2023-01-04T10:25:03.865Z,0.55
2023-01-04T10:28:02.818Z,0.98
2023-01-04T10:30:44.173Z,1.20
2023-01-04T10:33:18.854Z,0.80
2023-01-04T10:35:45.967Z,0.70
2023-01-04T10:38:19.270Z,0.75
2023-01-04T10:40:47.668Z,0.77
2023-01-04T10:43:26.908Z,0.60
2023-01-04T10:46:14.454Z,1.48
2023-01-04T10:48:51.953Z,1.50
2023-01-04T10:51:29.418Z,1.13
2023-01-04T10:54:03.314Z,0.68
2023-01-04T10:57:06.701Z,0.70
2023-01-04T10:59:44.052Z,1.02
2023-01-04T11:02:22.056Z,1.20
2023-01-04T11:05:00.001Z,0.60
2023-01-04T11:07:52.636Z,0.50
2023-01-04T11:11:03.572Z,2.47
2023-01-04T11:13:31.134Z,1.15
2023-01-04T11:15:58.910Z,0.60
2023-01-04T11:18:25.427Z,0.70
2023-01-04T11:20:52.907Z,0.68
2023-01-04T11:23:20.554Z,1.42
2023-01-04T11:25:55.870Z,0.65
2023-01-04T11:28:40.872Z,1.10
2023-01-04T11:31:21.851Z,0.93
2023-01-04T11:33:52.439Z,0.60
2023-01-04T11:36:45.779Z,0.90
2023-01-04T11:39:21.587Z,1.27
2023-01-04T11:42:02.316Z,0.88
2023-01-04T11:44:30.875Z,1.85
2023-01-04T11:47:08.035Z,1.45
2023-01-04T11:49:36.413Z,1.10
2023-01-04T11:52:05.026Z,0.68
2023-01-04T11:54:31.452Z,1.58
2023-01-04T11:57:01.577Z,0.88
2023-01-04T11:59:30.139Z,0.70
2023-01-04T12:05:26.187Z,2.05
2023-01-04T12:08:05.994Z,0.60
2023-01-04T12:10:32.512Z,0.70
2023-01-04T12:13:01.188Z,1.80
2023-01-04T12:15:37.401Z,0.70
2023-01-04T12:18:20.988Z,0.70
2023-01-04T12:20:48.189Z,2.17
2023-01-04T12:23:14.712Z,0.60
2023-01-04T12:25:45.925Z,0.60
2023-01-04T12:28:28.607Z,0.80
2023-01-04T12:30:55.408Z,2.40
2023-01-04T12:33:33.847Z,0.65
2023-01-04T12:36:07.913Z,0.93
2023-01-04T12:39:02.056Z,0.73
2023-01-04T12:41:34.389Z,1.10
2023-01-04T12:44:01.756Z,1.50
2023-01-04T12:46:46.773Z,0.60
2023-01-04T12:49:42.147Z,2.05
2023-01-04T12:55:11.166Z,1.00
2023-01-04T12:57:38.683Z,0.60
2023-01-04T13:00:06.737Z,1.30
2023-01-04T13:02:44.156Z,1.15
2023-01-04T13:08:01.583Z,0.80
2023-01-04T13:10:33.255Z,1.20
2023-01-04T13:13:25.993Z,3.95
2023-01-04T13:16:00.393Z,0.70
2023-01-04T13:18:47.287Z,0.75
2023-01-04T13:23:52.695Z,0.50
2023-01-04T13:26:45.804Z,0.60
2023-01-04T13:29:30.236Z,0.80
2023-01-04T13:31:58.429Z,0.60
2023-01-04T13:34:35.352Z,0.65
2023-01-04T13:37:10.609Z,0.57
2023-01-04T13:39:40.292Z,0.60
2023-01-04T13:42:16.122Z,0.50
2023-01-04T13:45:17.701Z,0.80
2023-01-04T13:47:36.789Z,1.02
2023-01-04T13:50:04.605Z,0.57
2023-01-04T13:52:58.358Z,0.50
2023-01-04T13:55:27.321Z,0.80
2023-01-04T13:57:55.039Z,0.75
2023-01-04T14:00:21.945Z,1.33
2023-01-04T14:03:13.846Z,0.65
2023-01-04T14:05:48.084Z,0.60
2023-01-04T14:08:21.184Z,2.30
2023-01-04T14:10:47.852Z,0.50
2023-01-04T14:13:17.226Z,1.20
2023-01-04T14:15:43.730Z,0.70
2023-01-04T14:18:31.257Z,0.65
2023-01-04T14:20:57.866Z,0.68
2023-01-04T14:23:35.609Z,0.80
2023-01-04T14:26:02.097Z,0.65
2023-01-04T14:28:32.675Z,0.68
2023-01-04T14:30:59.184Z,0.98
2023-01-04T14:33:39.143Z,0.73
2023-01-04T14:36:28.928Z,0.60
2023-01-04T14:39:04.154Z,0.68
2023-01-04T14:41:37.947Z,1.13
2023-01-04T14:44:20.830Z,2.28
2023-01-04T14:46:54.212Z,0.70
2023-01-04T14:49:22.179Z,0.70
2023-01-04T14:51:54.596Z,3.70
2023-01-04T14:54:24.962Z,4.07
2023-01-04T14:56:56.036Z,1.55
2023-01-04T14:59:23.800Z,0.60
2023-01-04T15:01:55.674Z,1.10
2023-01-04T15:04:22.866Z,1.15
2023-01-04T15:06:55.361Z,1.38
2023-01-04T15:09:22.338Z,1.48
2023-01-04T15:11:48.944Z,0.85
2023-01-04T15:14:15.875Z,0.70
2023-01-04T15:16:42.547Z,0.95
2023-01-04T15:19:09.317Z,0.75
2023-01-04T15:21:40.841Z,0.77
2023-01-04T15:24:10.563Z,0.73
2023-01-04T15:26:38.828Z,0.60
2023-01-04T15:29:06.665Z,0.98
2023-01-04T15:31:38.825Z,1.88
2023-01-04T15:34:06.128Z,0.60
2023-01-04T15:36:32.665Z,1.10
2023-01-04T15:38:59.145Z,0.50
2023-01-04T15:41:44.106Z,0.50
2023-01-04T15:44:11.439Z,0.50
2023-01-04T15:46:38.283Z,0.52
2023-01-04T15:49:04.846Z,0.95
2023-01-04T15:51:31.300Z,0.60
2023-01-04T15:53:57.887Z,1.17
2023-01-04T15:56:25.345Z,0.70
2023-01-04T15:58:53.549Z,0.50
2023-01-04T16:01:20.387Z,0.52
2023-01-04T16:03:51.350Z,0.50
2023-01-04T16:06:20.200Z,0.70
2023-01-04T16:08:47.127Z,0.75
2023-01-04T16:11:19.581Z,0.70
2023-01-04T16:13:47.376Z,0.73
2023-01-04T16:16:14.356Z,2.28
2023-01-04T16:18:45.670Z,1.50
2023-01-04T16:21:12.520Z,1.10
2023-01-04T16:23:38.923Z,1.35
2023-01-04T16:26:11.675Z,0.60
2023-01-04T16:28:38.478Z,1.10
2023-01-04T16:31:06.140Z,0.70
2023-01-04T16:33:33.427Z,0.88
2023-01-04T16:36:08.171Z,0.57
2023-01-04T16:38:39.466Z,0.57
2023-01-04T16:41:07.556Z,0.90
2023-01-04T16:43:46.456Z,0.60
2023-01-04T16:46:13.012Z,0.70
2023-01-04T16:48:43.211Z,0.60
2023-01-04T16:51:10.476Z,1.88
2023-01-04T16:53:38.374Z,1.50
2023-01-04T16:56:06.997Z,2.83
2023-01-04T16:58:33.561Z,0.77
2023-01-04T17:01:14.797Z,1.33
2023-01-04T17:03:42.882Z,0.70
2023-01-04T17:06:17.686Z,0.70
2023-01-04T17:08:45.475Z,0.80
2023-01-04T17:14:13.044Z,0.40
2023-01-04T17:16:40.720Z,0.50
2023-01-04T17:19:07.282Z,1.35
2023-01-04T17:21:34.984Z,0.50
2023-01-04T17:24:02.788Z,0.70
2023-01-04T17:26:31.199Z,0.98
2023-01-04T17:28:58.850Z,0.60
2023-01-04T17:31:34.960Z,1.65
2023-01-04T17:34:02.204Z,0.82
2023-01-04T17:36:29.396Z,0.98
2023-01-04T17:38:58.041Z,1.30
2023-01-04T17:41:26.595Z,0.60
2023-01-04T17:43:57.230Z,0.50
2023-01-04T17:46:24.912Z,0.52
2023-01-04T17:49:17.943Z,0.50
2023-01-04T17:51:39.681Z,0.93
2023-01-04T17:54:06.887Z,0.50
2023-01-04T17:56:33.560Z,0.68
2023-01-04T17:59:04.119Z,0.80
2023-01-04T18:01:30.847Z,0.70
2023-01-04T18:03:59.831Z,0.57
2023-01-04T18:06:32.898Z,1.20
2023-01-04T18:09:00.136Z,2.22
2023-01-04T18:11:26.974Z,0.63
2023-01-04T18:13:53.989Z,0.52
2023-01-04T18:16:25.671Z,0.47
2023-01-04T18:18:57.258Z,0.50
2023-01-04T18:21:31.151Z,0.65
2023-01-04T18:27:19.842Z,0.40
2023-01-04T18:29:33.438Z,0.50
2023-01-04T18:31:59.998Z,0.40
2023-01-04T18:34:26.926Z,0.65
2023-01-04T18:36:53.911Z,0.32
2023-01-04T18:39:20.691Z,0.40
2023-01-04T18:41:47.317Z,0.40
2023-01-04T18:47:01.772Z,0.40
2023-01-04T18:49:29.522Z,0.45
2023-01-04T18:51:55.958Z,0.75
2023-01-04T18:54:22.457Z,0.63
2023-01-04T18:56:49.361Z,0.60
2023-01-04T18:59:18.963Z,0.80
2023-01-04T19:01:45.915Z,0.77
2023-01-04T19:04:13.088Z,0.60
2023-01-04T19:06:40.854Z,0.70
2023-01-04T19:09:07.860Z,1.02
2023-01-04T19:11:35.488Z,0.40
2023-01-04T19:14:03.302Z,0.50
2023-01-04T19:16:31.045Z,0.40
2023-01-04T19:18:59.488Z,0.40
2023-01-04T19:21:26.045Z,0.50
2023-01-04T19:23:52.846Z,0.50
2023-01-04T19:26:20.508Z,0.45
2023-01-04T19:28:47.087Z,0.40
2023-01-04T19:31:14.692Z,0.60
2023-01-04T19:33:41.262Z,0.60
2023-01-04T19:36:10.166Z,0.47
2023-01-04T19:38:37.085Z,1.15
2023-01-04T19:41:04.846Z,0.50
2023-01-04T19:43:32.247Z,0.50
2023-01-04T19:45:58.842Z,0.52
2023-01-04T19:48:26.044Z,0.50
2023-01-04T19:51:07.337Z,0.70
2023-01-04T19:53:33.774Z,0.70
2023-01-04T19:56:00.286Z,0.73
2023-01-04T19:58:26.828Z,0.40
2023-01-04T20:00:55.032Z,0.60
2023-01-04T20:03:22.551Z,0.50
2023-01-04T20:05:49.886Z,0.65
2023-01-04T20:08:16.382Z,0.50
2023-01-04T20:10:42.928Z,0.40
2023-01-04T20:13:09.526Z,0.50
2023-01-04T20:15:39.671Z,0.80
2023-01-04T20:18:13.473Z,0.68
2023-01-04T20:20:44.433Z,0.40
2023-01-04T20:23:12.271Z,0.70
2023-01-04T20:25:40.518Z,0.70
2023-01-04T20:28:07.007Z,1.15
2023-01-04T20:30:33.653Z,0.65
2023-01-04T20:33:00.435Z,0.60
2023-01-04T20:35:27.075Z,0.60
2023-01-04T20:37:59.518Z,0.77
2023-01-04T20:40:27.581Z,0.60
2023-01-04T20:43:13.033Z,0.50
2023-01-04T20:45:46.521Z,0.52
2023-01-04T20:48:13.751Z,0.75
2023-01-04T20:50:40.997Z,1.23
2023-01-04T20:53:08.007Z,0.60
2023-01-04T20:55:41.834Z,0.50
2023-01-04T20:58:09.483Z,0.60
2023-01-04T21:00:37.103Z,0.60
2023-01-04T21:03:09.414Z,0.77
2023-01-04T21:05:37.470Z,0.60
2023-01-04T21:08:05.035Z,0.55
2023-01-04T21:10:31.607Z,0.50
2023-01-04T21:12:58.035Z,0.70
2023-01-04T21:15:24.566Z,0.50
2023-01-04T21:17:51.065Z,0.50
2023-01-04T21:20:17.520Z,0.50
2023-01-04T21:22:43.960Z,0.70
2023-01-04T21:25:10.402Z,0.60
2023-01-04T21:27:36.863Z,0.50
2023-01-04T21:30:04.892Z,0.65
2023-01-04T21:32:31.479Z,0.50
2023-01-04T21:34:57.951Z,0.70
2023-01-04T21:37:24.853Z,0.50
2023-01-04T21:39:51.400Z,0.50
2023-01-04T21:42:17.841Z,0.40
2023-01-04T21:44:44.263Z,0.60
2023-01-04T21:47:10.659Z,0.70
2023-01-04T21:49:37.072Z,0.50
2023-01-04T21:52:03.499Z,0.50
2023-01-04T21:54:29.938Z,0.50
2023-01-04T21:56:56.375Z,0.50
2023-01-04T21:59:22.960Z,0.57
2023-01-04T22:01:49.438Z,0.57
2023-01-04T22:04:16.078Z,0.60
2023-01-04T22:06:42.720Z,0.60
2023-01-04T22:09:09.394Z,0.40
2023-01-04T22:11:35.881Z,0.50
2023-01-04T22:14:02.572Z,0.30
2023-01-04T22:16:29.409Z,0.50
2023-01-04T22:18:55.913Z,0.50
2023-01-04T22:21:23.819Z,0.40
2023-01-04T22:23:51.503Z,0.40
2023-01-04T22:26:18.206Z,1.10
2023-01-04T22:28:44.919Z,0.40
2023-01-04T22:31:13.743Z,0.40
2023-01-04T22:33:41.674Z,0.47
2023-01-04T22:36:22.426Z,0.40
2023-01-04T22:38:54.342Z,0.57
2023-01-04T22:41:22.627Z,0.40
2023-01-04T22:43:58.202Z,0.85
2023-01-04T22:46:26.409Z,2.00
2023-01-04T22:48:52.986Z,0.40
2023-01-04T22:51:20.990Z,0.47
2023-01-04T22:53:48.300Z,1.55
2023-01-04T22:56:20.131Z,0.50
2023-01-04T22:58:52.880Z,0.40
2023-01-04T23:01:21.243Z,0.50
2023-01-04T23:03:48.728Z,0.40
2023-01-04T23:06:15.714Z,0.52
2023-01-04T23:08:42.416Z,0.68
2023-01-04T23:11:14.751Z,0.40
2023-01-04T23:13:41.617Z,0.45
2023-01-04T23:16:11.169Z,0.40
2023-01-04T23:18:38.124Z,0.95
2023-01-04T23:21:06.310Z,0.40
2023-01-04T23:23:33.455Z,0.50
2023-01-04T23:26:13.783Z,0.50
2023-01-04T23:28:40.313Z,0.60
2023-01-04T23:31:10.317Z,0.40
2023-01-04T23:33:37.254Z,0.40
2023-01-04T23:36:19.147Z,0.40
2023-01-04T23:38:51.482Z,0.45
2023-01-04T23:41:18.610Z,0.40
2023-01-04T23:43:45.439Z,0.82
2023-01-04T23:46:17.342Z,0.50
2023-01-04T23:48:44.554Z,0.50
2023-01-04T23:51:14.848Z,0.52
2023-01-04T23:53:41.343Z,0.55
2023-01-04T23:56:14.458Z,0.40
2023-01-04T23:58:40.948Z,0.60
